createdAt,value
2018-09-06T00:01:36.368Z,13.13
2018-09-06T00:04:04.821Z,13.00
2018-09-06T00:06:33.233Z,14.10
2018-09-06T00:09:04.864Z,13.43
2018-09-06T00:11:33.287Z,13.47
2018-09-06T00:14:01.733Z,14.23
2018-09-06T00:16:30.191Z,13.60
2018-09-06T00:18:58.603Z,14.77
2018-09-06T00:21:26.952Z,15.27
2018-09-06T00:23:55.351Z,14.50
2018-09-06T00:26:24.547Z,16.30
2018-09-06T00:28:52.982Z,14.93
2018-09-06T00:31:21.404Z,15.90
2018-09-06T00:33:49.794Z,15.03
2018-09-06T00:36:18.201Z,16.47
2018-09-06T00:38:46.592Z,14.63
2018-09-06T00:41:17.225Z,14.50
2018-09-06T00:43:45.928Z,13.57
2018-09-06T00:46:14.412Z,12.20
2018-09-06T00:48:42.823Z,14.03
2018-09-06T00:51:11.304Z,13.07
2018-09-06T00:53:39.753Z,12.47
2018-09-06T00:56:08.131Z,11.57
2018-09-06T00:58:36.527Z,12.65
2018-09-06T01:01:04.944Z,12.77
2018-09-06T01:03:33.361Z,14.37
2018-09-06T01:06:01.747Z,13.77
2018-09-06T01:08:30.225Z,15.13
2018-09-06T01:10:58.680Z,14.90
2018-09-06T01:13:27.086Z,13.90
2018-09-06T01:15:55.451Z,12.85
2018-09-06T01:18:24.757Z,14.90
2018-09-06T01:20:53.230Z,14.57
2018-09-06T01:23:21.586Z,13.78
2018-09-06T01:25:49.992Z,13.50
2018-09-06T01:28:19.884Z,13.60
2018-09-06T01:30:48.428Z,15.10
2018-09-06T01:33:16.856Z,14.30
2018-09-06T01:35:51.488Z,14.10
2018-09-06T01:38:31.050Z,13.30
2018-09-06T01:41:00.633Z,12.93
2018-09-06T01:43:29.140Z,13.53
2018-09-06T01:45:57.580Z,13.48
2018-09-06T01:48:25.976Z,13.00
2018-09-06T01:50:54.347Z,13.70
2018-09-06T01:53:22.784Z,13.00
2018-09-06T01:55:51.199Z,13.90
2018-09-06T01:58:19.616Z,13.90
2018-09-06T02:00:47.973Z,13.70
2018-09-06T02:03:16.474Z,14.10
2018-09-06T02:05:44.883Z,13.77
2018-09-06T02:08:13.284Z,14.10
2018-09-06T02:10:41.660Z,13.90
2018-09-06T02:13:10.057Z,14.17
2018-09-06T02:15:38.451Z,14.50
2018-09-06T02:18:06.831Z,14.10
2018-09-06T02:20:35.317Z,14.05
2018-09-06T02:23:03.726Z,14.23
2018-09-06T02:25:32.207Z,14.63
2018-09-06T02:28:00.679Z,14.58
2018-09-06T02:30:29.141Z,14.00
2018-09-06T02:32:57.665Z,16.20
2018-09-06T02:35:26.039Z,14.83
2018-09-06T02:37:54.395Z,15.58
2018-09-06T02:40:28.267Z,14.37
2018-09-06T02:42:57.301Z,14.50
2018-09-06T02:45:25.723Z,15.77
2018-09-06T02:47:54.492Z,14.03
2018-09-06T02:50:28.168Z,14.65
2018-09-06T02:52:57.115Z,13.90
2018-09-06T02:55:26.951Z,15.67
2018-09-06T02:57:55.352Z,15.60
2018-09-06T03:00:30.194Z,16.90
2018-09-06T03:02:58.733Z,16.75
2018-09-06T03:05:27.643Z,16.07
2018-09-06T03:07:57.154Z,16.67
2018-09-06T03:10:28.903Z,16.15
2018-09-06T03:12:57.446Z,15.18
2018-09-06T03:15:25.896Z,15.23
2018-09-06T03:17:54.215Z,15.10
2018-09-06T03:20:22.619Z,14.90
2018-09-06T03:22:51.080Z,14.73
2018-09-06T03:25:19.505Z,14.43
2018-09-06T03:27:48.010Z,14.33
2018-09-06T03:30:16.421Z,15.27
2018-09-06T03:32:44.781Z,14.57
2018-09-06T03:35:13.191Z,14.53
2018-09-06T03:37:41.620Z,15.00
2018-09-06T03:40:10.062Z,15.27
2018-09-06T03:42:38.485Z,15.47
2018-09-06T03:45:06.979Z,15.90
2018-09-06T03:47:35.400Z,17.37
2018-09-06T03:50:03.850Z,16.40
2018-09-06T03:52:32.226Z,15.87
2018-09-06T03:55:00.659Z,15.88
2018-09-06T03:57:29.089Z,16.20
2018-09-06T03:59:57.594Z,16.10
2018-09-06T04:02:25.983Z,16.17
2018-09-06T04:04:54.373Z,15.60
2018-09-06T04:07:22.796Z,15.97
2018-09-06T04:09:51.195Z,16.87
2018-09-06T04:12:19.593Z,16.30
2018-09-06T04:14:47.968Z,16.50
2018-09-06T04:17:16.423Z,17.93
2018-09-06T04:19:44.832Z,17.23
2018-09-06T04:22:13.255Z,17.67
2018-09-06T04:24:42.132Z,17.75
2018-09-06T04:27:32.409Z,17.90
2018-09-06T04:30:00.783Z,18.43
2018-09-06T04:32:29.221Z,18.93
2018-09-06T04:34:57.579Z,18.32
2018-09-06T04:37:31.327Z,19.83
2018-09-06T04:40:00.186Z,20.03
2018-09-06T04:42:28.620Z,18.80
2018-09-06T04:44:57.032Z,16.93
2018-09-06T04:47:40.186Z,18.03
2018-09-06T04:50:08.606Z,17.75
2018-09-06T04:52:37.326Z,18.30
2018-09-06T04:55:05.843Z,17.17
2018-09-06T04:57:34.326Z,17.27
2018-09-06T05:00:02.819Z,16.05
2018-09-06T05:02:31.272Z,16.17
2018-09-06T05:04:59.655Z,17.20
2018-09-06T05:07:28.150Z,17.87
2018-09-06T05:09:56.594Z,17.57
2018-09-06T05:12:25.030Z,17.93
2018-09-06T05:14:54.621Z,17.00
2018-09-06T05:17:23.094Z,17.27
2018-09-06T05:19:51.547Z,17.17
2018-09-06T05:22:19.998Z,16.30
2018-09-06T05:24:49.636Z,17.00
2018-09-06T05:27:18.460Z,17.50
2018-09-06T05:29:46.848Z,16.37
2018-09-06T05:32:15.331Z,16.07
2018-09-06T05:34:44.554Z,16.25
2018-09-06T05:37:13.246Z,16.60
2018-09-06T05:39:43.165Z,18.02
2018-09-06T05:42:11.787Z,16.37
2018-09-06T05:44:53.859Z,16.00
2018-09-06T05:47:22.400Z,15.93
2018-09-06T05:49:50.761Z,16.80
2018-09-06T05:52:19.158Z,16.63
2018-09-06T05:54:47.573Z,17.23
2018-09-06T05:57:15.976Z,17.33
2018-09-06T05:59:44.451Z,17.00
2018-09-06T06:02:12.790Z,16.87
2018-09-06T06:04:41.197Z,16.27
2018-09-06T06:07:09.937Z,17.52
2018-09-06T06:09:38.372Z,16.27
2018-09-06T06:12:06.743Z,16.30
2018-09-06T06:14:35.498Z,15.60
2018-09-06T06:17:03.908Z,16.80
2018-09-06T06:19:32.351Z,15.85
2018-09-06T06:22:00.781Z,16.48
2018-09-06T06:24:29.124Z,16.03
2018-09-06T06:26:57.577Z,15.53
2018-09-06T06:29:25.980Z,16.30
2018-09-06T06:31:54.932Z,15.90
2018-09-06T06:34:23.458Z,16.83
2018-09-06T06:36:51.857Z,16.67
2018-09-06T06:39:20.956Z,16.77
2018-09-06T06:41:49.377Z,15.32
2018-09-06T06:44:17.995Z,15.90
2018-09-06T06:46:46.371Z,15.43
2018-09-06T06:49:14.754Z,14.40
2018-09-06T06:51:43.642Z,15.93
2018-09-06T06:54:21.371Z,16.20
2018-09-06T06:56:49.747Z,16.20
2018-09-06T06:59:18.138Z,14.27
2018-09-06T07:01:47.803Z,15.60
2018-09-06T07:04:16.254Z,15.80
2018-09-06T07:06:44.629Z,14.83
2018-09-06T07:09:13.032Z,15.03
2018-09-06T07:11:41.380Z,15.43
2018-09-06T07:14:10.601Z,13.80
2018-09-06T07:16:39.018Z,15.50
2018-09-06T07:19:07.437Z,15.90
2018-09-06T07:21:38.577Z,15.70
2018-09-06T07:24:07.009Z,13.98
2018-09-06T07:26:35.384Z,14.73
2018-09-06T07:29:03.788Z,16.07
2018-09-06T07:31:32.421Z,15.80
2018-09-06T07:34:01.057Z,16.27
2018-09-06T07:36:30.385Z,14.47
2018-09-06T07:38:58.802Z,14.17
2018-09-06T07:41:27.295Z,16.13
2018-09-06T07:43:55.625Z,15.30
2018-09-06T07:46:24.029Z,16.13
2018-09-06T07:48:52.668Z,16.17
2018-09-06T07:51:21.084Z,16.67
2018-09-06T07:53:49.472Z,15.67
2018-09-06T07:56:17.916Z,16.67
2018-09-06T07:58:46.260Z,14.78
2018-09-06T08:01:14.677Z,15.70
2018-09-06T08:03:43.086Z,14.53
2018-09-06T08:06:11.491Z,14.70
2018-09-06T08:08:39.880Z,14.57
2018-09-06T08:11:08.309Z,14.30
2018-09-06T08:13:36.693Z,14.30
2018-09-06T08:16:05.112Z,14.83
2018-09-06T08:18:33.585Z,15.83
2018-09-06T08:21:02.063Z,17.10
2018-09-06T08:23:30.515Z,16.63
2018-09-06T08:25:59.582Z,16.65
2018-09-06T08:28:27.985Z,17.20
2018-09-06T08:30:56.552Z,16.57
2018-09-06T08:33:24.833Z,17.05
2018-09-06T08:35:53.250Z,18.00
2018-09-06T08:38:21.668Z,18.67
2018-09-06T08:40:50.053Z,16.70
2018-09-06T08:43:18.425Z,18.45
2018-09-06T08:45:46.871Z,17.67
2018-09-06T08:48:15.352Z,16.97
2018-09-06T08:50:43.734Z,17.87
2018-09-06T08:53:12.338Z,18.92
2018-09-06T08:55:40.805Z,17.77
2018-09-06T08:58:10.246Z,17.87
2018-09-06T09:00:41.637Z,18.80
2018-09-06T09:03:11.744Z,17.67
2018-09-06T09:05:40.298Z,17.23
2018-09-06T09:08:08.703Z,17.57
2018-09-06T09:10:37.445Z,17.53
2018-09-06T09:13:06.286Z,18.00
2018-09-06T09:15:34.643Z,17.93
2018-09-06T09:18:04.285Z,17.12
2018-09-06T09:20:33.164Z,16.95
2018-09-06T09:23:01.946Z,18.93
2018-09-06T09:25:30.409Z,17.03
2018-09-06T09:27:59.019Z,16.42
2018-09-06T09:30:27.635Z,18.62
2018-09-06T09:32:56.037Z,18.00
2018-09-06T09:35:24.461Z,18.37
2018-09-06T09:37:52.961Z,18.50
2018-09-06T09:40:21.399Z,17.87
2018-09-06T09:42:49.780Z,17.70
2018-09-06T09:45:18.264Z,17.17
2018-09-06T09:47:46.737Z,19.82
2018-09-06T09:52:42.705Z,18.67
2018-09-06T09:55:11.106Z,17.80
2018-09-06T09:57:39.538Z,20.63
2018-09-06T10:00:07.984Z,18.07
2018-09-06T10:02:41.797Z,19.12
2018-09-06T10:05:15.666Z,17.77
2018-09-06T10:07:49.386Z,19.27
2018-09-06T10:10:18.627Z,18.60
2018-09-06T10:12:47.051Z,16.50
2018-09-06T10:15:15.560Z,17.40
2018-09-06T10:17:43.936Z,17.97
2018-09-06T10:20:12.301Z,18.00
2018-09-06T10:22:40.738Z,17.50
2018-09-06T10:25:09.165Z,16.23
2018-09-06T10:27:37.668Z,18.17
2018-09-06T10:30:06.080Z,17.33
2018-09-06T10:32:35.129Z,19.02
2018-09-06T10:35:03.552Z,18.85
2018-09-06T10:37:32.733Z,18.70
2018-09-06T10:40:01.181Z,17.93
2018-09-06T10:42:29.603Z,19.73
2018-09-06T10:44:58.034Z,17.53
2018-09-06T10:47:26.509Z,17.47
2018-09-06T10:49:54.998Z,17.40
2018-09-06T10:52:23.696Z,16.60
2018-09-06T10:54:52.089Z,16.93
2018-09-06T10:57:20.527Z,15.90
2018-09-06T10:59:48.996Z,17.33
2018-09-06T11:02:17.452Z,18.33
2018-09-06T11:04:45.975Z,17.13
2018-09-06T11:07:14.383Z,17.98
2018-09-06T11:09:42.780Z,16.25
2018-09-06T11:12:11.176Z,15.20
2018-09-06T11:14:39.599Z,18.45
2018-09-06T11:17:08.163Z,17.35
2018-09-06T11:19:36.737Z,17.97
2018-09-06T11:22:05.364Z,18.13
2018-09-06T11:24:33.650Z,18.82
2018-09-06T11:27:02.110Z,16.93
2018-09-06T11:29:30.533Z,18.00
2018-09-06T11:31:59.649Z,19.80
2018-09-06T11:34:28.089Z,18.50
2018-09-06T11:36:56.494Z,18.90
2018-09-06T11:39:25.032Z,18.37
2018-09-06T11:41:53.463Z,17.45
2018-09-06T11:44:21.843Z,15.48
2018-09-06T11:46:50.308Z,15.40
2018-09-06T11:49:18.741Z,16.23
2018-09-06T11:51:47.270Z,14.83
2018-09-06T11:54:15.648Z,14.50
2018-09-06T11:56:44.074Z,13.20
2018-09-06T11:59:12.496Z,12.80
2018-09-06T12:01:40.925Z,13.10
2018-09-06T12:04:09.573Z,13.03
2018-09-06T12:06:38.041Z,12.67
2018-09-06T12:09:06.872Z,13.45
2018-09-06T12:11:36.140Z,13.70
2018-09-06T12:14:04.621Z,13.90
2018-09-06T12:16:33.160Z,14.77
2018-09-06T12:19:02.418Z,16.63
2018-09-06T12:21:30.994Z,15.80
2018-09-06T12:24:00.243Z,17.00
2018-09-06T12:26:28.968Z,16.42
2018-09-06T12:28:57.389Z,14.70
2018-09-06T12:31:25.851Z,15.60
2018-09-06T12:33:54.375Z,14.73
2018-09-06T12:36:22.812Z,15.00
2018-09-06T12:38:51.488Z,15.27
2018-09-06T12:41:19.964Z,16.80
2018-09-06T12:43:48.407Z,12.50
2018-09-06T12:46:16.827Z,13.05
2018-09-06T12:48:45.341Z,13.13
2018-09-06T12:51:13.725Z,13.50
2018-09-06T12:53:42.185Z,13.35
2018-09-06T12:56:10.581Z,14.60
2018-09-06T12:58:39.012Z,12.93
2018-09-06T13:01:07.544Z,11.93
2018-09-06T13:03:35.981Z,13.70
2018-09-06T13:06:04.428Z,14.93
2018-09-06T13:08:32.807Z,13.15
2018-09-06T13:11:01.229Z,15.10
2018-09-06T13:13:30.553Z,16.20
2018-09-06T13:15:58.964Z,14.27
2018-09-06T13:18:27.437Z,14.03
2018-09-06T13:20:55.824Z,12.40
2018-09-06T13:23:24.182Z,13.80
2018-09-06T13:25:52.646Z,13.15
2018-09-06T13:28:21.488Z,13.25
2018-09-06T13:30:49.985Z,13.87
2018-09-06T13:33:18.413Z,12.90
2018-09-06T13:35:46.795Z,13.45
2018-09-06T13:38:15.242Z,11.70
2018-09-06T13:40:43.685Z,11.87
2018-09-06T13:43:12.062Z,10.78
2018-09-06T13:45:40.440Z,9.93
2018-09-06T13:48:08.880Z,9.90
2018-09-06T13:50:37.323Z,9.13
2018-09-06T13:53:05.773Z,9.37
2018-09-06T13:55:34.155Z,11.50
2018-09-06T13:58:02.564Z,10.70
2018-09-06T14:00:31.976Z,10.50
2018-09-06T14:03:00.346Z,10.33
2018-09-06T14:05:28.762Z,11.53
2018-09-06T14:08:04.553Z,11.10
2018-09-06T14:10:32.956Z,10.77
2018-09-06T14:13:01.384Z,11.25
2018-09-06T14:15:29.872Z,10.57
2018-09-06T14:17:58.258Z,11.53
2018-09-06T14:20:26.739Z,11.57
2018-09-06T14:22:55.107Z,12.50
2018-09-06T14:25:23.570Z,12.57
2018-09-06T14:27:51.997Z,13.60
2018-09-06T14:30:20.350Z,12.05
2018-09-06T14:32:49.682Z,12.80
2018-09-06T14:35:18.183Z,13.33
2018-09-06T14:37:46.606Z,14.20
2018-09-06T14:40:15.038Z,13.90
2018-09-06T14:42:43.483Z,12.70
2018-09-06T14:45:11.944Z,11.83
2018-09-06T14:47:40.418Z,12.97
2018-09-06T14:50:08.818Z,11.77
2018-09-06T14:52:37.289Z,12.13
2018-09-06T14:55:05.717Z,13.23
2018-09-06T14:57:34.125Z,12.43
2018-09-06T15:00:02.604Z,14.47
2018-09-06T15:02:31.025Z,13.70
2018-09-06T15:04:59.457Z,12.20
2018-09-06T15:07:28.810Z,12.30
2018-09-06T15:09:57.222Z,12.33
2018-09-06T15:12:25.823Z,13.18
2018-09-06T15:14:54.288Z,13.47
2018-09-06T15:17:22.699Z,13.30
2018-09-06T15:19:51.259Z,12.90
2018-09-06T15:22:19.717Z,12.10
2018-09-06T15:24:48.199Z,12.87
2018-09-06T15:27:16.672Z,13.10
2018-09-06T15:29:45.123Z,11.73
2018-09-06T15:32:13.492Z,12.83
2018-09-06T15:34:41.941Z,11.97
2018-09-06T15:37:10.329Z,13.07
2018-09-06T15:39:38.770Z,13.22
2018-09-06T15:42:07.776Z,13.08
2018-09-06T15:44:36.345Z,12.27
2018-09-06T15:47:04.809Z,12.35
2018-09-06T15:49:33.321Z,11.67
2018-09-06T15:52:01.688Z,10.98
2018-09-06T15:54:30.116Z,12.23
2018-09-06T15:56:58.530Z,12.47
2018-09-06T15:59:26.960Z,13.30
2018-09-06T16:01:55.437Z,12.87
2018-09-06T16:04:23.825Z,12.13
2018-09-06T16:06:52.257Z,12.43
2018-09-06T16:09:20.702Z,12.10
2018-09-06T16:11:49.116Z,13.03
2018-09-06T16:14:17.570Z,13.40
2018-09-06T16:16:46.777Z,12.68
2018-09-06T16:19:15.177Z,12.67
2018-09-06T16:21:43.621Z,12.93
2018-09-06T16:24:12.091Z,12.70
2018-09-06T16:26:40.443Z,11.97
2018-09-06T16:29:08.832Z,12.93
2018-09-06T16:31:37.253Z,12.30
2018-09-06T16:34:09.172Z,11.22
2018-09-06T16:36:37.675Z,12.55
2018-09-06T16:39:07.451Z,12.00
2018-09-06T16:41:35.840Z,14.47
2018-09-06T16:44:04.802Z,12.60
2018-09-06T16:46:33.220Z,13.57
2018-09-06T16:49:01.693Z,13.90
2018-09-06T16:51:30.111Z,13.50
2018-09-06T16:53:58.531Z,13.57
2018-09-06T16:56:26.980Z,14.00
2018-09-06T16:58:55.371Z,12.03
2018-09-06T17:01:23.774Z,13.60
2018-09-06T17:03:53.066Z,12.40
2018-09-06T17:06:21.651Z,13.25
2018-09-06T17:08:50.294Z,12.73
2018-09-06T17:11:18.734Z,13.03
2018-09-06T17:13:47.175Z,14.00
2018-09-06T17:16:15.604Z,12.53
2018-09-06T17:18:44.059Z,13.10
2018-09-06T17:21:12.521Z,12.40
2018-09-06T17:23:40.984Z,13.22
2018-09-06T17:26:09.513Z,13.50
2018-09-06T17:28:37.909Z,13.17
2018-09-06T17:31:06.816Z,13.90
2018-09-06T17:33:35.216Z,11.90
2018-09-06T17:36:03.673Z,13.48
2018-09-06T17:38:32.147Z,12.50
2018-09-06T17:41:01.292Z,13.95
2018-09-06T17:43:29.709Z,13.88
2018-09-06T17:45:58.161Z,12.90
2018-09-06T17:48:26.681Z,13.17
2018-09-06T17:50:55.198Z,13.90
2018-09-06T17:53:23.669Z,12.97
2018-09-06T17:55:52.145Z,12.33
2018-09-06T17:58:20.588Z,12.37
2018-09-06T18:01:02.781Z,11.90
2018-09-06T18:03:31.278Z,11.75
2018-09-06T18:05:59.718Z,11.80
2018-09-06T18:08:28.207Z,11.77
2018-09-06T18:10:56.720Z,11.12
2018-09-06T18:13:25.130Z,11.65
2018-09-06T18:15:53.586Z,11.73
2018-09-06T18:18:22.043Z,10.97
2018-09-06T18:20:50.485Z,11.53
2018-09-06T18:23:18.958Z,11.30
2018-09-06T18:25:47.424Z,10.68
2018-09-06T18:28:15.820Z,11.73
2018-09-06T18:30:44.298Z,11.55
2018-09-06T18:33:12.751Z,12.20
2018-09-06T18:35:41.268Z,11.70
2018-09-06T18:38:09.680Z,12.33
2018-09-06T18:40:38.180Z,10.83
2018-09-06T18:43:06.748Z,11.55
2018-09-06T18:45:35.268Z,12.35
2018-09-06T18:48:04.609Z,11.80
2018-09-06T18:50:33.125Z,12.20
2018-09-06T18:53:01.594Z,12.70
2018-09-06T18:55:30.101Z,12.37
2018-09-06T18:57:58.644Z,12.77
2018-09-06T19:00:27.031Z,11.90
2018-09-06T19:02:55.470Z,12.18
2018-09-06T19:05:23.879Z,12.40
2018-09-06T19:07:52.315Z,13.18
2018-09-06T19:10:20.773Z,11.20
2018-09-06T19:12:49.759Z,11.97
2018-09-06T19:15:18.229Z,11.97
2018-09-06T19:17:46.647Z,11.75
2018-09-06T19:20:15.108Z,11.60
2018-09-06T19:22:43.613Z,12.40
2018-09-06T19:25:12.232Z,13.50
2018-09-06T19:27:40.623Z,12.17
2018-09-06T19:30:09.161Z,13.33
2018-09-06T19:32:37.671Z,12.50
2018-09-06T19:35:06.192Z,12.10
2018-09-06T19:37:34.589Z,12.53
2018-09-06T19:40:03.652Z,13.53
2018-09-06T19:42:32.476Z,13.80
2018-09-06T19:45:00.954Z,12.23
2018-09-06T19:47:29.476Z,13.80
2018-09-06T19:49:57.910Z,12.43
2018-09-06T19:52:26.372Z,13.13
2018-09-06T19:54:54.880Z,12.75
2018-09-06T19:57:23.741Z,13.03
2018-09-06T19:59:54.122Z,13.93
2018-09-06T20:02:26.674Z,12.33
2018-09-06T20:04:55.943Z,12.90
2018-09-06T20:07:24.536Z,13.62
2018-09-06T20:09:53.061Z,13.83
2018-09-06T20:12:41.114Z,14.83
2018-09-06T20:15:21.173Z,14.73
2018-09-06T20:17:49.979Z,14.93
2018-09-06T20:20:22.002Z,15.53
2018-09-06T20:22:50.496Z,15.97
2018-09-06T20:25:18.968Z,15.68
2018-09-06T20:27:47.430Z,16.37
2018-09-06T20:30:15.952Z,17.70
2018-09-06T20:32:46.118Z,16.90
2018-09-06T20:35:14.659Z,16.48
2018-09-06T20:37:44.514Z,18.27
2018-09-06T20:40:12.994Z,18.30
2018-09-06T20:42:41.441Z,18.57
2018-09-06T20:45:09.888Z,18.87
2018-09-06T20:47:42.277Z,20.57
2018-09-06T20:50:10.680Z,21.87
2018-09-06T20:52:39.119Z,21.20
2018-09-06T20:55:07.504Z,22.13
2018-09-06T20:57:35.896Z,22.73
2018-09-06T21:00:04.477Z,23.25
2018-09-06T21:02:39.768Z,25.17
2018-09-06T21:05:11.487Z,26.77
2018-09-06T21:07:40.007Z,25.50
2018-09-06T21:10:08.404Z,26.90
2018-09-06T21:12:36.852Z,26.42
2018-09-06T21:15:05.306Z,28.67
2018-09-06T21:17:34.370Z,28.47
2018-09-06T21:20:02.830Z,28.50
2018-09-06T21:22:31.282Z,28.17
2018-09-06T21:24:59.960Z,29.77
2018-09-06T21:27:28.444Z,27.95
2018-09-06T21:29:57.814Z,29.10
2018-09-06T21:32:26.324Z,30.05
2018-09-06T21:34:55.929Z,28.93
2018-09-06T21:37:24.267Z,28.77
2018-09-06T21:39:52.767Z,29.90
2018-09-06T21:42:21.093Z,29.80
2018-09-06T21:44:49.530Z,29.03
2018-09-06T21:47:17.924Z,29.30
2018-09-06T21:49:46.307Z,28.67
2018-09-06T21:52:14.789Z,29.13
2018-09-06T21:54:43.230Z,30.87
2018-09-06T21:57:11.645Z,31.15
2018-09-06T21:59:40.045Z,28.52
2018-09-06T22:02:12.697Z,27.60
2018-09-06T22:04:41.203Z,36.37
2018-09-06T22:07:09.625Z,33.05
2018-09-06T22:09:38.090Z,32.10
2018-09-06T22:12:11.307Z,31.40
2018-09-06T22:14:39.724Z,34.93
2018-09-06T22:17:08.150Z,33.63
2018-09-06T22:19:36.549Z,33.73
2018-09-06T22:22:04.929Z,35.13
2018-09-06T22:24:33.421Z,33.98
2018-09-06T22:27:01.853Z,33.50
2018-09-06T22:29:30.357Z,33.20
2018-09-06T22:31:58.909Z,33.93
2018-09-06T22:37:03.804Z,33.97
2018-09-06T22:39:32.321Z,34.80
2018-09-06T22:42:00.860Z,34.93
2018-09-06T22:44:29.444Z,35.60
2018-09-06T22:46:57.909Z,36.05
2018-09-06T22:49:26.292Z,37.60
2018-09-06T22:51:54.756Z,33.75
2018-09-06T22:54:23.203Z,34.85
2018-09-06T22:56:51.616Z,34.97
2018-09-06T22:59:19.984Z,34.13
2018-09-06T23:01:48.534Z,36.05
2018-09-06T23:04:16.929Z,35.38
2018-09-06T23:06:46.222Z,38.77
2018-09-06T23:09:14.633Z,34.77
2018-09-06T23:11:43.107Z,32.77
2018-09-06T23:14:11.550Z,36.37
2018-09-06T23:16:39.934Z,35.50
2018-09-06T23:19:08.459Z,36.50
2018-09-06T23:21:36.915Z,33.63
2018-09-06T23:24:05.344Z,36.85
2018-09-06T23:26:33.698Z,38.17
2018-09-06T23:29:02.290Z,36.83
2018-09-06T23:31:30.712Z,33.67
2018-09-06T23:33:59.077Z,35.80
2018-09-06T23:36:27.562Z,37.50
2018-09-06T23:38:56.020Z,36.20
2018-09-06T23:41:25.984Z,33.57
2018-09-06T23:43:54.383Z,33.60
2018-09-06T23:46:22.824Z,36.47
2018-09-06T23:48:51.236Z,35.98
2018-09-06T23:51:19.708Z,33.57
2018-09-06T23:53:48.113Z,34.53
2018-09-06T23:56:16.522Z,34.13
2018-09-06T23:58:44.916Z,34.80
